Ho Chi Minh City, Vietnam
Current Conditions -  °F | °C
As of 11:00 AM on Thursday 29 Jan 2015 (Local Time) from VVTS Reporting Station
Haze Haze  
Wind Chill: 86°   Ceiling: Unl
Heat Index: 88°   Visibility: 3mi
Dew Point: 66°   Wind: 3mph
Humidity: 51%   Direction: NA
Pressure: 29.91"   Gusts: NA
Location:  10.78°N, 106.69°E
Report Text: VVTS 290400Z VRB03KT 5000 HZ NSC 30/19 Q1013 NOSIG
Loading
Personal Weather Stations






























Interactive Weather Map New forecast layout! Learn more

10-Day Weather Forecast

Advertisements
Track Severe Weather on mobile